Архив погоды в Ноябрьске

Метеограмма Ноябрьск
Вторник, 14 Августа
Время местн. Темп Ветер Видим Явления Облачность нижн/средн/верх Атм. давл. Влжн Точка росы ВНГО R Сост. почвы Tg s
Напр Скр Прв ур.ст ур.м изм
17:00 +23.6° Ю 5 - 20 км - облачно с прояснениями 743 754 -0.2 60% +15.5° 1.5 км - - - -
14:00 +23.3° Ю 6 11 20 км - переменная облачность 743 755 +0.2 67% +16.9° 1 км - - - -
11:00 +20.5° Ю 6 12 20 км - облачно 743 754 -0.7 77% +16.4° 1 км - - - -
08:00 +17° Ю 4 - 20 км - переменная облачность 744 755 -0.6 77% +12.9° 1.5 км 0 Влажная (без луж) - -
05:00 +12.8° Ю 3 - 20 км - переменная облачность 744 756 -0.5 91% +11.4° 1.5 км - - - -
02:00 +12.5° Ю 3 - 20 км - переменная облачность 745 757 0 90% +10.9° 1.5 км - - - -
Понедельник, 13 Августа
Время местн. Темп Ветер Видим Явления Облачность нижн/средн/верх Атм. давл. Влжн Точка росы ВНГО R Сост. почвы Tg s
Напр Скр Прв ур.ст ур.м изм
23:00 +12.5° Ю 3 - 20 км - переменная облачность 745 757 +0.4 90% +10.9° 1.5 км - - - -
20:00 +14.4° Ю 2 - 20 км - переменная облачность 745 756 +0.5 78% +10.6° 1.5 км 0 - - -
17:00 +18.4° Ю-З 5 - 20 км - переменная облачность 744 756 +0.6 58% +9.9° 1.5 км - - - -
14:00 +17.5° Ю-З 4 - 20 км - облачно с прояснениями 743 755 +0.8 64% +10.6° 1.5 км - - - -
11:00 +15.2° З,Ю-З 5 - 20 км - преимущественно облачно 743 754 +0.4 70% +9.7° 1 км - - - -
08:00 +12.4° Ю 3 - 20 км - облачно 742 754 +0.6 77% +8.4° 1.5 км 0.2 - - -
05:00 +5.9° Ю,Ю-З 2 - 20 км - облачно с прояснениями 742 754 +0.9 98% +5.6° 1.5 км - - - -
02:00 +8.5° Ю-З 3 - 20 км - облачно 741 753 +0.8 95% +7.7° 1 км - - - -
Воскресенье, 12 Августа
Время местн. Темп Ветер Видим Явления Облачность нижн/средн/верх Атм. давл. Влжн Точка росы ВНГО R Сост. почвы Tg s
Напр Скр Прв ур.ст ур.м изм
23:00 +9.5° Ю,Ю-З 2 - 20 км небо без изменений {ливневые осадки} облачно 740 752 +0.4 96% +8.9° 1 км - - - -
20:00 +10.1° С 2 - 20 км - облачно 740 751 +0.3 94% +9.2° 1.5 км 0.1 - - -
17:00 +11.1° Ю,Ю-З 2 - 20 км небо без изменений {ливневые осадки} облачно 739 751 +0.8 81% +7.9° 1 км - - - -
14:00 +10.4° З 5 - 4 км слабый ливневый дождь облачно 738 750 +0.8 85% +8° 1 км - - - -
11:00 +10.3° З 4 - 20 км небо без изменений {ливневые осадки} облачно 738 749 +0.3 74% +5.8° 1 км - - - -
08:00 +8.4° З,Ю-З 3 - 4 км слабый ливневый дождь облачно 737 749 +0.5 89% +6.7° 600 м 0 - - -
05:00 +7.5° З 3 - 20 км - облачно 737 749 +0.6 86% +5.3° 1 км - - - -
02:00 +7.9° З 3 - 20 км - переменная облачность 736 748 +0.5 85% +5.6° 1.5 км - - - -
Суббота, 11 Августа
Время местн. Темп Ветер Видим Явления Облачность нижн/средн/верх Атм. давл. Влжн Точка росы ВНГО R Сост. почвы Tg s
Напр Скр Прв ур.ст ур.м изм
23:00 +8.9° З 3 - 20 км - переменная облачность 736 747 +0.7 82% +6° 1 км - - - -
20:00 +9.5° С-З 3 - 20 км - переменная облачность 735 747 +1.2 69% +4.1° 1 км 0.6 - - -
17:00 +10.4° С-З 6 10 20 км небо без изменений {дождь} облачно 734 745 +1 76% +6.4° 1 км - - - -
14:00 +9° С-З 7 11 10 км слабый непрерывный дождь облачно 733 744 +1.2 93% +8° 300 м - - - -